sensor_id;sensor_type;location;lat;lon;timestamp;P1;durP1;ratioP1;P2;durP2;ratioP2
39674;SDS011;27790;50.840;4.386;2023-04-25T00:00:18;15.95;;;5.57;;
39674;SDS011;27790;50.840;4.386;2023-04-25T00:02:43;14.10;;;4.78;;
39674;SDS011;27790;50.840;4.386;2023-04-25T00:05:09;14.57;;;4.00;;
39674;SDS011;27790;50.840;4.386;2023-04-25T00:07:35;13.00;;;4.60;;
39674;SDS011;27790;50.840;4.386;2023-04-25T00:10:01;14.65;;;4.65;;
39674;SDS011;27790;50.840;4.386;2023-04-25T00:12:27;17.20;;;4.50;;
39674;SDS011;27790;50.840;4.386;2023-04-25T00:14:53;26.90;;;5.00;;
39674;SDS011;27790;50.840;4.386;2023-04-25T00:17:22;24.35;;;4.68;;
39674;SDS011;27790;50.840;4.386;2023-04-25T00:19:49;12.25;;;4.32;;
39674;SDS011;27790;50.840;4.386;2023-04-25T00:22:15;13.93;;;3.92;;
39674;SDS011;27790;50.840;4.386;2023-04-25T00:24:41;19.40;;;4.43;;
39674;SDS011;27790;50.840;4.386;2023-04-25T00:27:06;13.07;;;3.78;;
39674;SDS011;27790;50.840;4.386;2023-04-25T00:29:32;20.05;;;5.13;;
39674;SDS011;27790;50.840;4.386;2023-04-25T00:31:58;23.48;;;6.15;;
39674;SDS011;27790;50.840;4.386;2023-04-25T00:34:24;13.27;;;4.50;;
39674;SDS011;27790;50.840;4.386;2023-04-25T00:36:50;17.33;;;5.63;;
39674;SDS011;27790;50.840;4.386;2023-04-25T00:39:15;21.27;;;4.63;;
39674;SDS011;27790;50.840;4.386;2023-04-25T00:41:41;26.95;;;5.18;;
39674;SDS011;27790;50.840;4.386;2023-04-25T00:44:08;13.60;;;4.00;;
39674;SDS011;27790;50.840;4.386;2023-04-25T00:46:36;19.20;;;5.28;;
39674;SDS011;27790;50.840;4.386;2023-04-25T00:49:02;18.80;;;4.43;;
39674;SDS011;27790;50.840;4.386;2023-04-25T00:51:27;18.45;;;4.72;;
39674;SDS011;27790;50.840;4.386;2023-04-25T00:53:53;20.88;;;5.75;;
39674;SDS011;27790;50.840;4.386;2023-04-25T00:56:19;35.38;;;5.22;;
39674;SDS011;27790;50.840;4.386;2023-04-25T00:58:46;23.92;;;5.93;;
39674;SDS011;27790;50.840;4.386;2023-04-25T01:01:13;18.30;;;3.97;;
39674;SDS011;27790;50.840;4.386;2023-04-25T01:03:39;21.42;;;4.97;;
39674;SDS011;27790;50.840;4.386;2023-04-25T01:06:07;13.48;;;4.35;;
39674;SDS011;27790;50.840;4.386;2023-04-25T01:08:37;32.15;;;5.75;;
39674;SDS011;27790;50.840;4.386;2023-04-25T01:11:03;23.45;;;5.47;;
39674;SDS011;27790;50.840;4.386;2023-04-25T01:13:29;18.52;;;5.45;;
39674;SDS011;27790;50.840;4.386;2023-04-25T01:15:56;17.30;;;3.92;;
39674;SDS011;27790;50.840;4.386;2023-04-25T01:18:23;12.52;;;5.00;;
39674;SDS011;27790;50.840;4.386;2023-04-25T01:20:50;26.75;;;5.22;;
39674;SDS011;27790;50.840;4.386;2023-04-25T01:23:17;16.95;;;3.92;;
39674;SDS011;27790;50.840;4.386;2023-04-25T01:25:44;19.05;;;5.13;;
39674;SDS011;27790;50.840;4.386;2023-04-25T01:28:10;21.70;;;4.88;;
39674;SDS011;27790;50.840;4.386;2023-04-25T01:30:36;17.55;;;4.63;;
39674;SDS011;27790;50.840;4.386;2023-04-25T01:33:02;16.42;;;4.72;;
39674;SDS011;27790;50.840;4.386;2023-04-25T01:35:30;22.75;;;5.30;;
39674;SDS011;27790;50.840;4.386;2023-04-25T01:37:56;10.30;;;3.92;;
39674;SDS011;27790;50.840;4.386;2023-04-25T01:40:22;16.85;;;4.38;;
39674;SDS011;27790;50.840;4.386;2023-04-25T01:42:49;25.42;;;5.28;;
39674;SDS011;27790;50.840;4.386;2023-04-25T01:45:16;20.05;;;4.28;;
39674;SDS011;27790;50.840;4.386;2023-04-25T01:47:42;19.67;;;5.20;;
39674;SDS011;27790;50.840;4.386;2023-04-25T01:50:09;33.42;;;5.35;;
39674;SDS011;27790;50.840;4.386;2023-04-25T01:52:36;14.65;;;4.93;;
39674;SDS011;27790;50.840;4.386;2023-04-25T01:55:02;25.48;;;4.50;;
39674;SDS011;27790;50.840;4.386;2023-04-25T01:57:27;26.88;;;5.57;;
39674;SDS011;27790;50.840;4.386;2023-04-25T02:00:00;20.70;;;5.15;;
39674;SDS011;27790;50.840;4.386;2023-04-25T02:02:28;18.52;;;4.60;;
39674;SDS011;27790;50.840;4.386;2023-04-25T02:04:53;21.58;;;5.40;;
39674;SDS011;27790;50.840;4.386;2023-04-25T02:07:19;33.90;;;5.55;;
39674;SDS011;27790;50.840;4.386;2023-04-25T02:09:45;21.90;;;5.88;;
39674;SDS011;27790;50.840;4.386;2023-04-25T02:12:11;17.55;;;4.22;;
39674;SDS011;27790;50.840;4.386;2023-04-25T02:14:36;15.98;;;4.72;;
39674;SDS011;27790;50.840;4.386;2023-04-25T02:17:02;28.23;;;5.55;;
39674;SDS011;27790;50.840;4.386;2023-04-25T02:19:28;18.10;;;4.50;;
39674;SDS011;27790;50.840;4.386;2023-04-25T02:21:54;20.45;;;5.57;;
39674;SDS011;27790;50.840;4.386;2023-04-25T02:24:20;16.67;;;4.22;;
39674;SDS011;27790;50.840;4.386;2023-04-25T02:26:45;20.15;;;5.65;;
39674;SDS011;27790;50.840;4.386;2023-04-25T02:29:11;15.85;;;4.75;;
39674;SDS011;27790;50.840;4.386;2023-04-25T02:31:37;16.25;;;4.50;;
39674;SDS011;27790;50.840;4.386;2023-04-25T02:34:03;24.20;;;5.05;;
39674;SDS011;27790;50.840;4.386;2023-04-25T02:36:29;19.55;;;4.68;;
39674;SDS011;27790;50.840;4.386;2023-04-25T02:38:57;14.88;;;4.05;;
39674;SDS011;27790;50.840;4.386;2023-04-25T02:41:23;17.38;;;4.57;;
39674;SDS011;27790;50.840;4.386;2023-04-25T02:43:49;16.45;;;4.97;;
39674;SDS011;27790;50.840;4.386;2023-04-25T02:46:15;19.58;;;4.82;;
39674;SDS011;27790;50.840;4.386;2023-04-25T02:48:40;16.58;;;4.95;;
39674;SDS011;27790;50.840;4.386;2023-04-25T02:51:06;17.52;;;4.28;;
39674;SDS011;27790;50.840;4.386;2023-04-25T02:53:31;15.52;;;5.05;;
39674;SDS011;27790;50.840;4.386;2023-04-25T02:55:57;13.30;;;4.95;;
39674;SDS011;27790;50.840;4.386;2023-04-25T02:58:24;25.50;;;6.20;;
39674;SDS011;27790;50.840;4.386;2023-04-25T03:00:49;24.38;;;6.43;;
39674;SDS011;27790;50.840;4.386;2023-04-25T03:03:15;19.33;;;5.30;;
39674;SDS011;27790;50.840;4.386;2023-04-25T03:05:43;52.15;;;6.72;;
39674;SDS011;27790;50.840;4.386;2023-04-25T03:08:09;28.42;;;6.00;;
39674;SDS011;27790;50.840;4.386;2023-04-25T03:10:34;30.75;;;4.50;;
39674;SDS011;27790;50.840;4.386;2023-04-25T03:13:00;17.38;;;4.53;;
39674;SDS011;27790;50.840;4.386;2023-04-25T03:15:26;28.13;;;6.75;;
39674;SDS011;27790;50.840;4.386;2023-04-25T03:17:51;15.32;;;4.72;;
39674;SDS011;27790;50.840;4.386;2023-04-25T03:20:17;16.95;;;4.68;;
39674;SDS011;27790;50.840;4.386;2023-04-25T03:22:42;19.17;;;4.82;;
39674;SDS011;27790;50.840;4.386;2023-04-25T03:25:09;18.73;;;5.35;;
39674;SDS011;27790;50.840;4.386;2023-04-25T03:27:35;41.75;;;6.95;;
39674;SDS011;27790;50.840;4.386;2023-04-25T03:30:00;15.82;;;4.80;;
39674;SDS011;27790;50.840;4.386;2023-04-25T03:32:27;22.95;;;4.70;;
39674;SDS011;27790;50.840;4.386;2023-04-25T03:34:53;31.98;;;5.93;;
39674;SDS011;27790;50.840;4.386;2023-04-25T03:37:19;23.35;;;4.68;;
39674;SDS011;27790;50.840;4.386;2023-04-25T03:39:44;19.77;;;5.28;;
39674;SDS011;27790;50.840;4.386;2023-04-25T03:42:10;19.95;;;5.20;;
39674;SDS011;27790;50.840;4.386;2023-04-25T03:44:35;21.35;;;4.57;;
39674;SDS011;27790;50.840;4.386;2023-04-25T03:47:01;14.77;;;4.13;;
39674;SDS011;27790;50.840;4.386;2023-04-25T03:49:26;15.25;;;4.60;;
39674;SDS011;27790;50.840;4.386;2023-04-25T03:51:52;15.35;;;4.75;;
39674;SDS011;27790;50.840;4.386;2023-04-25T03:54:18;21.77;;;4.53;;
39674;SDS011;27790;50.840;4.386;2023-04-25T03:56:43;19.58;;;5.20;;
39674;SDS011;27790;50.840;4.386;2023-04-25T03:59:09;20.13;;;4.40;;
39674;SDS011;27790;50.840;4.386;2023-04-25T04:01:34;33.05;;;4.60;;
39674;SDS011;27790;50.840;4.386;2023-04-25T04:04:00;16.33;;;4.45;;
39674;SDS011;27790;50.840;4.386;2023-04-25T04:06:26;16.60;;;4.03;;
39674;SDS011;27790;50.840;4.386;2023-04-25T04:08:51;20.45;;;5.03;;
39674;SDS011;27790;50.840;4.386;2023-04-25T04:11:17;18.77;;;4.47;;
39674;SDS011;27790;50.840;4.386;2023-04-25T04:13:43;16.30;;;4.57;;
39674;SDS011;27790;50.840;4.386;2023-04-25T04:16:08;18.42;;;5.22;;
39674;SDS011;27790;50.840;4.386;2023-04-25T04:18:34;30.52;;;4.90;;
39674;SDS011;27790;50.840;4.386;2023-04-25T04:21:00;17.17;;;5.57;;
39674;SDS011;27790;50.840;4.386;2023-04-25T04:23:26;17.52;;;5.10;;
39674;SDS011;27790;50.840;4.386;2023-04-25T04:25:53;21.15;;;5.55;;
39674;SDS011;27790;50.840;4.386;2023-04-25T04:28:19;18.02;;;3.95;;
39674;SDS011;27790;50.840;4.386;2023-04-25T04:30:46;22.30;;;4.60;;
39674;SDS011;27790;50.840;4.386;2023-04-25T04:33:12;18.75;;;4.38;;
39674;SDS011;27790;50.840;4.386;2023-04-25T04:35:40;16.05;;;4.63;;
39674;SDS011;27790;50.840;4.386;2023-04-25T04:38:06;18.52;;;3.92;;
39674;SDS011;27790;50.840;4.386;2023-04-25T04:40:32;32.83;;;5.50;;
39674;SDS011;27790;50.840;4.386;2023-04-25T04:42:58;11.43;;;4.28;;
39674;SDS011;27790;50.840;4.386;2023-04-25T04:45:23;29.33;;;4.75;;
39674;SDS011;27790;50.840;4.386;2023-04-25T04:47:49;40.08;;;7.60;;
39674;SDS011;27790;50.840;4.386;2023-04-25T04:50:15;22.67;;;5.75;;
39674;SDS011;27790;50.840;4.386;2023-04-25T04:52:41;22.55;;;5.22;;
39674;SDS011;27790;50.840;4.386;2023-04-25T04:55:07;11.48;;;3.95;;
39674;SDS011;27790;50.840;4.386;2023-04-25T04:57:33;10.75;;;4.43;;
39674;SDS011;27790;50.840;4.386;2023-04-25T04:59:59;12.52;;;5.30;;
39674;SDS011;27790;50.840;4.386;2023-04-25T05:02:26;14.93;;;5.55;;
39674;SDS011;27790;50.840;4.386;2023-04-25T05:04:51;18.58;;;4.80;;
39674;SDS011;27790;50.840;4.386;2023-04-25T05:07:17;26.23;;;5.35;;
39674;SDS011;27790;50.840;4.386;2023-04-25T05:09:44;23.33;;;4.53;;
39674;SDS011;27790;50.840;4.386;2023-04-25T05:12:09;18.30;;;5.00;;
39674;SDS011;27790;50.840;4.386;2023-04-25T05:14:35;19.05;;;4.88;;
39674;SDS011;27790;50.840;4.386;2023-04-25T05:17:01;22.70;;;5.13;;
39674;SDS011;27790;50.840;4.386;2023-04-25T05:19:29;14.35;;;4.03;;
39674;SDS011;27790;50.840;4.386;2023-04-25T05:21:55;14.63;;;5.18;;
39674;SDS011;27790;50.840;4.386;2023-04-25T05:24:21;13.45;;;4.90;;
39674;SDS011;27790;50.840;4.386;2023-04-25T05:26:46;25.13;;;5.07;;
39674;SDS011;27790;50.840;4.386;2023-04-25T05:29:12;18.38;;;6.03;;
39674;SDS011;27790;50.840;4.386;2023-04-25T05:31:38;16.77;;;5.88;;
39674;SDS011;27790;50.840;4.386;2023-04-25T05:34:03;19.58;;;5.18;;
39674;SDS011;27790;50.840;4.386;2023-04-25T05:36:29;13.05;;;3.78;;
39674;SDS011;27790;50.840;4.386;2023-04-25T05:38:55;15.77;;;4.05;;
39674;SDS011;27790;50.840;4.386;2023-04-25T05:41:21;11.68;;;3.08;;
39674;SDS011;27790;50.840;4.386;2023-04-25T05:43:47;9.02;;;3.63;;
39674;SDS011;27790;50.840;4.386;2023-04-25T05:46:14;13.35;;;4.47;;
39674;SDS011;27790;50.840;4.386;2023-04-25T05:48:42;9.85;;;3.65;;
39674;SDS011;27790;50.840;4.386;2023-04-25T05:51:08;21.23;;;4.72;;
39674;SDS011;27790;50.840;4.386;2023-04-25T05:53:34;19.10;;;4.63;;
39674;SDS011;27790;50.840;4.386;2023-04-25T05:56:00;17.67;;;4.43;;
39674;SDS011;27790;50.840;4.386;2023-04-25T05:58:26;10.68;;;3.67;;
39674;SDS011;27790;50.840;4.386;2023-04-25T06:00:51;12.35;;;3.58;;
39674;SDS011;27790;50.840;4.386;2023-04-25T06:03:17;9.25;;;3.88;;
39674;SDS011;27790;50.840;4.386;2023-04-25T06:05:42;16.02;;;3.40;;
39674;SDS011;27790;50.840;4.386;2023-04-25T06:08:09;23.35;;;6.13;;
39674;SDS011;27790;50.840;4.386;2023-04-25T06:10:35;14.30;;;4.50;;
39674;SDS011;27790;50.840;4.386;2023-04-25T06:13:01;18.02;;;4.65;;
39674;SDS011;27790;50.840;4.386;2023-04-25T06:15:27;22.27;;;6.03;;
39674;SDS011;27790;50.840;4.386;2023-04-25T06:17:53;19.58;;;5.75;;
39674;SDS011;27790;50.840;4.386;2023-04-25T06:20:18;24.08;;;5.47;;
39674;SDS011;27790;50.840;4.386;2023-04-25T06:22:48;14.13;;;5.07;;
39674;SDS011;27790;50.840;4.386;2023-04-25T06:25:14;15.07;;;5.20;;
39674;SDS011;27790;50.840;4.386;2023-04-25T06:27:40;19.20;;;5.28;;
39674;SDS011;27790;50.840;4.386;2023-04-25T06:30:06;21.48;;;6.65;;
39674;SDS011;27790;50.840;4.386;2023-04-25T06:32:32;23.60;;;6.40;;
39674;SDS011;27790;50.840;4.386;2023-04-25T06:34:59;26.33;;;5.40;;
39674;SDS011;27790;50.840;4.386;2023-04-25T06:37:25;23.30;;;6.18;;
39674;SDS011;27790;50.840;4.386;2023-04-25T06:39:50;24.23;;;5.82;;
39674;SDS011;27790;50.840;4.386;2023-04-25T06:42:16;14.25;;;6.03;;
39674;SDS011;27790;50.840;4.386;2023-04-25T06:44:43;12.80;;;4.15;;
39674;SDS011;27790;50.840;4.386;2023-04-25T06:47:08;14.73;;;5.07;;
39674;SDS011;27790;50.840;4.386;2023-04-25T06:49:34;13.95;;;4.47;;
39674;SDS011;27790;50.840;4.386;2023-04-25T06:51:59;23.10;;;4.03;;
39674;SDS011;27790;50.840;4.386;2023-04-25T06:54:25;42.60;;;6.25;;
39674;SDS011;27790;50.840;4.386;2023-04-25T06:56:53;14.27;;;4.05;;
39674;SDS011;27790;50.840;4.386;2023-04-25T06:59:19;17.58;;;4.72;;
39674;SDS011;27790;50.840;4.386;2023-04-25T07:01:45;8.63;;;3.50;;
39674;SDS011;27790;50.840;4.386;2023-04-25T07:04:10;13.82;;;4.38;;
39674;SDS011;27790;50.840;4.386;2023-04-25T07:06:39;19.92;;;4.22;;
39674;SDS011;27790;50.840;4.386;2023-04-25T07:09:10;15.75;;;3.65;;
39674;SDS011;27790;50.840;4.386;2023-04-25T07:11:36;13.85;;;3.20;;
39674;SDS011;27790;50.840;4.386;2023-04-25T07:14:02;14.63;;;3.88;;
39674;SDS011;27790;50.840;4.386;2023-04-25T07:16:30;16.65;;;3.47;;
39674;SDS011;27790;50.840;4.386;2023-04-25T07:18:56;14.63;;;3.42;;
39674;SDS011;27790;50.840;4.386;2023-04-25T07:21:22;14.60;;;3.47;;
39674;SDS011;27790;50.840;4.386;2023-04-25T07:23:47;15.23;;;3.75;;
39674;SDS011;27790;50.840;4.386;2023-04-25T07:26:13;15.32;;;4.65;;
39674;SDS011;27790;50.840;4.386;2023-04-25T07:28:38;23.45;;;4.20;;
39674;SDS011;27790;50.840;4.386;2023-04-25T07:31:04;11.60;;;3.58;;
39674;SDS011;27790;50.840;4.386;2023-04-25T07:33:30;8.05;;;2.55;;
39674;SDS011;27790;50.840;4.386;2023-04-25T07:35:56;12.68;;;3.60;;
39674;SDS011;27790;50.840;4.386;2023-04-25T07:38:21;16.02;;;3.33;;
39674;SDS011;27790;50.840;4.386;2023-04-25T07:40:47;10.35;;;3.55;;
39674;SDS011;27790;50.840;4.386;2023-04-25T07:43:15;14.95;;;4.25;;
39674;SDS011;27790;50.840;4.386;2023-04-25T07:45:42;21.35;;;2.92;;
39674;SDS011;27790;50.840;4.386;2023-04-25T07:48:11;12.60;;;3.58;;
39674;SDS011;27790;50.840;4.386;2023-04-25T07:50:37;17.67;;;3.10;;
39674;SDS011;27790;50.840;4.386;2023-04-25T07:53:02;15.80;;;3.30;;
39674;SDS011;27790;50.840;4.386;2023-04-25T07:55:28;9.15;;;3.38;;
39674;SDS011;27790;50.840;4.386;2023-04-25T07:57:54;19.88;;;3.88;;
39674;SDS011;27790;50.840;4.386;2023-04-25T08:00:20;16.98;;;3.50;;
39674;SDS011;27790;50.840;4.386;2023-04-25T08:02:48;16.58;;;2.95;;
39674;SDS011;27790;50.840;4.386;2023-04-25T08:05:16;17.23;;;2.72;;
39674;SDS011;27790;50.840;4.386;2023-04-25T08:07:42;11.27;;;2.78;;
39674;SDS011;27790;50.840;4.386;2023-04-25T08:10:08;11.40;;;2.60;;
39674;SDS011;27790;50.840;4.386;2023-04-25T08:12:34;11.75;;;3.20;;
39674;SDS011;27790;50.840;4.386;2023-04-25T08:15:03;13.05;;;2.95;;
39674;SDS011;27790;50.840;4.386;2023-04-25T08:17:30;20.98;;;3.63;;
39674;SDS011;27790;50.840;4.386;2023-04-25T08:19:56;9.77;;;2.72;;
39674;SDS011;27790;50.840;4.386;2023-04-25T08:22:22;12.52;;;2.80;;
39674;SDS011;27790;50.840;4.386;2023-04-25T08:24:47;11.23;;;3.15;;
39674;SDS011;27790;50.840;4.386;2023-04-25T08:27:14;16.13;;;3.38;;
39674;SDS011;27790;50.840;4.386;2023-04-25T08:29:41;13.20;;;4.40;;
39674;SDS011;27790;50.840;4.386;2023-04-25T08:32:07;18.40;;;3.42;;
39674;SDS011;27790;50.840;4.386;2023-04-25T08:34:32;15.60;;;3.50;;
39674;SDS011;27790;50.840;4.386;2023-04-25T08:36:58;17.58;;;3.33;;
39674;SDS011;27790;50.840;4.386;2023-04-25T08:39:23;11.02;;;2.70;;
39674;SDS011;27790;50.840;4.386;2023-04-25T08:41:49;7.57;;;2.60;;
39674;SDS011;27790;50.840;4.386;2023-04-25T08:44:15;11.10;;;3.47;;
39674;SDS011;27790;50.840;4.386;2023-04-25T08:46:41;11.80;;;2.40;;
39674;SDS011;27790;50.840;4.386;2023-04-25T08:49:09;8.30;;;2.28;;
39674;SDS011;27790;50.840;4.386;2023-04-25T08:51:35;13.50;;;2.60;;
39674;SDS011;27790;50.840;4.386;2023-04-25T08:54:08;9.68;;;2.95;;
39674;SDS011;27790;50.840;4.386;2023-04-25T08:56:41;11.93;;;3.00;;
39674;SDS011;27790;50.840;4.386;2023-04-25T08:59:10;11.90;;;2.10;;
39674;SDS011;27790;50.840;4.386;2023-04-25T09:01:36;4.65;;;2.00;;
39674;SDS011;27790;50.840;4.386;2023-04-25T09:04:02;7.53;;;2.15;;
39674;SDS011;27790;50.840;4.386;2023-04-25T09:06:28;9.15;;;2.55;;
39674;SDS011;27790;50.840;4.386;2023-04-25T09:09:00;12.38;;;2.85;;
39674;SDS011;27790;50.840;4.386;2023-04-25T09:11:34;7.20;;;2.03;;
39674;SDS011;27790;50.840;4.386;2023-04-25T09:19:22;14.35;;;2.67;;
39674;SDS011;27790;50.840;4.386;2023-04-25T09:21:56;8.57;;;3.10;;
39674;SDS011;27790;50.840;4.386;2023-04-25T09:27:11;9.18;;;2.33;;
39674;SDS011;27790;50.840;4.386;2023-04-25T09:29:42;9.70;;;2.97;;
39674;SDS011;27790;50.840;4.386;2023-04-25T09:32:12;4.13;;;2.30;;
39674;SDS011;27790;50.840;4.386;2023-04-25T09:34:41;9.00;;;2.97;;
39674;SDS011;27790;50.840;4.386;2023-04-25T09:37:09;8.93;;;2.25;;
39674;SDS011;27790;50.840;4.386;2023-04-25T09:39:36;11.80;;;3.22;;
39674;SDS011;27790;50.840;4.386;2023-04-25T09:42:03;4.55;;;2.17;;
39674;SDS011;27790;50.840;4.386;2023-04-25T09:44:35;10.55;;;2.35;;
39674;SDS011;27790;50.840;4.386;2023-04-25T09:47:01;6.88;;;2.35;;
39674;SDS011;27790;50.840;4.386;2023-04-25T09:49:27;8.55;;;2.58;;
39674;SDS011;27790;50.840;4.386;2023-04-25T09:51:57;7.00;;;2.63;;
39674;SDS011;27790;50.840;4.386;2023-04-25T09:54:25;7.45;;;2.08;;
39674;SDS011;27790;50.840;4.386;2023-04-25T09:56:51;11.82;;;3.10;;
39674;SDS011;27790;50.840;4.386;2023-04-25T09:59:21;5.85;;;2.33;;
39674;SDS011;27790;50.840;4.386;2023-04-25T10:01:50;8.23;;;2.30;;
39674;SDS011;27790;50.840;4.386;2023-04-25T10:04:21;10.30;;;2.15;;
39674;SDS011;27790;50.840;4.386;2023-04-25T10:06:53;10.32;;;2.60;;
39674;SDS011;27790;50.840;4.386;2023-04-25T10:09:21;6.72;;;2.22;;
39674;SDS011;27790;50.840;4.386;2023-04-25T10:11:54;7.57;;;1.88;;
39674;SDS011;27790;50.840;4.386;2023-04-25T10:14:21;5.32;;;1.50;;
39674;SDS011;27790;50.840;4.386;2023-04-25T10:16:48;7.38;;;1.90;;
39674;SDS011;27790;50.840;4.386;2023-04-25T10:19:14;8.43;;;1.70;;
39674;SDS011;27790;50.840;4.386;2023-04-25T10:21:52;4.60;;;2.13;;
39674;SDS011;27790;50.840;4.386;2023-04-25T10:24:27;6.20;;;1.95;;
39674;SDS011;27790;50.840;4.386;2023-04-25T10:26:53;7.15;;;3.13;;
39674;SDS011;27790;50.840;4.386;2023-04-25T10:29:22;3.70;;;1.90;;
39674;SDS011;27790;50.840;4.386;2023-04-25T10:31:51;9.23;;;1.70;;
39674;SDS011;27790;50.840;4.386;2023-04-25T10:34:17;6.40;;;2.25;;
39674;SDS011;27790;50.840;4.386;2023-04-25T10:36:49;8.75;;;1.70;;
39674;SDS011;27790;50.840;4.386;2023-04-25T10:39:26;4.40;;;1.73;;
39674;SDS011;27790;50.840;4.386;2023-04-25T10:41:56;9.52;;;2.00;;
39674;SDS011;27790;50.840;4.386;2023-04-25T10:44:25;10.43;;;1.98;;
39674;SDS011;27790;50.840;4.386;2023-04-25T10:46:54;5.93;;;1.45;;
39674;SDS011;27790;50.840;4.386;2023-04-25T10:54:48;2.35;;;1.45;;
39674;SDS011;27790;50.840;4.386;2023-04-25T11:00:15;9.00;;;2.33;;
39674;SDS011;27790;50.840;4.386;2023-04-25T11:02:42;9.43;;;2.78;;
39674;SDS011;27790;50.840;4.386;2023-04-25T11:05:33;6.93;;;1.90;;
39674;SDS011;27790;50.840;4.386;2023-04-25T11:07:58;3.47;;;1.30;;
39674;SDS011;27790;50.840;4.386;2023-04-25T11:10:28;4.85;;;1.95;;
39674;SDS011;27790;50.840;4.386;2023-04-25T11:12:57;4.93;;;1.85;;
39674;SDS011;27790;50.840;4.386;2023-04-25T11:15:25;6.75;;;1.95;;
39674;SDS011;27790;50.840;4.386;2023-04-25T11:17:51;6.28;;;1.88;;
39674;SDS011;27790;50.840;4.386;2023-04-25T11:20:17;7.07;;;2.05;;
39674;SDS011;27790;50.840;4.386;2023-04-25T11:22:44;7.72;;;1.55;;
39674;SDS011;27790;50.840;4.386;2023-04-25T11:25:11;7.88;;;2.13;;
39674;SDS011;27790;50.840;4.386;2023-04-25T11:27:49;4.20;;;1.63;;
39674;SDS011;27790;50.840;4.386;2023-04-25T11:30:22;4.50;;;1.23;;
39674;SDS011;27790;50.840;4.386;2023-04-25T11:32:49;6.00;;;1.70;;
39674;SDS011;27790;50.840;4.386;2023-04-25T11:35:16;5.68;;;1.58;;
39674;SDS011;27790;50.840;4.386;2023-04-25T11:37:43;6.68;;;1.77;;
39674;SDS011;27790;50.840;4.386;2023-04-25T11:40:09;3.88;;;1.90;;
39674;SDS011;27790;50.840;4.386;2023-04-25T11:42:36;4.45;;;1.88;;
39674;SDS011;27790;50.840;4.386;2023-04-25T11:45:03;4.72;;;1.63;;
39674;SDS011;27790;50.840;4.386;2023-04-25T11:47:30;4.32;;;1.25;;
39674;SDS011;27790;50.840;4.386;2023-04-25T11:49:59;13.07;;;2.60;;
39674;SDS011;27790;50.840;4.386;2023-04-25T11:55:08;12.13;;;2.22;;
39674;SDS011;27790;50.840;4.386;2023-04-25T11:57:41;9.07;;;1.75;;
39674;SDS011;27790;50.840;4.386;2023-04-25T12:00:15;10.27;;;1.50;;
39674;SDS011;27790;50.840;4.386;2023-04-25T12:02:43;3.38;;;1.35;;
39674;SDS011;27790;50.840;4.386;2023-04-25T12:05:10;9.85;;;1.98;;
39674;SDS011;27790;50.840;4.386;2023-04-25T12:07:37;7.20;;;1.75;;
39674;SDS011;27790;50.840;4.386;2023-04-25T12:10:10;6.43;;;1.70;;
39674;SDS011;27790;50.840;4.386;2023-04-25T12:12:37;3.55;;;1.20;;
39674;SDS011;27790;50.840;4.386;2023-04-25T12:15:09;3.08;;;1.58;;
39674;SDS011;27790;50.840;4.386;2023-04-25T12:17:49;5.68;;;1.33;;
39674;SDS011;27790;50.840;4.386;2023-04-25T12:20:17;10.25;;;1.70;;
39674;SDS011;27790;50.840;4.386;2023-04-25T12:22:48;6.80;;;1.20;;
39674;SDS011;27790;50.840;4.386;2023-04-25T12:28:10;2.88;;;1.35;;
39674;SDS011;27790;50.840;4.386;2023-04-25T12:33:34;3.90;;;1.55;;
39674;SDS011;27790;50.840;4.386;2023-04-25T12:36:02;2.10;;;1.00;;
39674;SDS011;27790;50.840;4.386;2023-04-25T12:38:35;1.77;;;0.70;;
39674;SDS011;27790;50.840;4.386;2023-04-25T12:41:05;1.58;;;1.02;;
39674;SDS011;27790;50.840;4.386;2023-04-25T12:43:31;6.60;;;1.38;;
39674;SDS011;27790;50.840;4.386;2023-04-25T12:45:57;8.05;;;1.55;;
39674;SDS011;27790;50.840;4.386;2023-04-25T12:48:23;3.60;;;1.60;;
39674;SDS011;27790;50.840;4.386;2023-04-25T12:50:49;3.13;;;1.48;;
39674;SDS011;27790;50.840;4.386;2023-04-25T12:53:16;4.43;;;1.02;;
39674;SDS011;27790;50.840;4.386;2023-04-25T12:55:42;5.82;;;1.00;;
39674;SDS011;27790;50.840;4.386;2023-04-25T12:58:11;3.33;;;1.10;;
39674;SDS011;27790;50.840;4.386;2023-04-25T13:00:36;1.23;;;1.05;;
39674;SDS011;27790;50.840;4.386;2023-04-25T13:03:02;9.60;;;1.60;;
39674;SDS011;27790;50.840;4.386;2023-04-25T13:05:29;7.20;;;1.52;;
39674;SDS011;27790;50.840;4.386;2023-04-25T13:07:55;3.65;;;1.23;;
39674;SDS011;27790;50.840;4.386;2023-04-25T13:10:21;1.73;;;0.90;;
39674;SDS011;27790;50.840;4.386;2023-04-25T13:12:47;4.78;;;1.20;;
39674;SDS011;27790;50.840;4.386;2023-04-25T13:15:12;4.05;;;1.13;;
39674;SDS011;27790;50.840;4.386;2023-04-25T13:17:40;4.28;;;1.48;;
39674;SDS011;27790;50.840;4.386;2023-04-25T13:20:06;3.97;;;1.45;;
39674;SDS011;27790;50.840;4.386;2023-04-25T13:22:34;2.40;;;1.15;;
39674;SDS011;27790;50.840;4.386;2023-04-25T13:25:03;4.07;;;1.45;;
39674;SDS011;27790;50.840;4.386;2023-04-25T13:27:30;7.88;;;1.50;;
39674;SDS011;27790;50.840;4.386;2023-04-25T13:29:57;5.15;;;1.00;;
39674;SDS011;27790;50.840;4.386;2023-04-25T13:32:23;1.23;;;0.90;;
39674;SDS011;27790;50.840;4.386;2023-04-25T13:34:50;3.72;;;1.13;;
39674;SDS011;27790;50.840;4.386;2023-04-25T13:37:16;3.30;;;1.88;;
39674;SDS011;27790;50.840;4.386;2023-04-25T13:39:42;6.22;;;1.23;;
39674;SDS011;27790;50.840;4.386;2023-04-25T13:42:07;8.77;;;1.63;;
39674;SDS011;27790;50.840;4.386;2023-04-25T13:44:33;3.25;;;1.27;;
39674;SDS011;27790;50.840;4.386;2023-04-25T13:46:58;4.95;;;2.20;;
39674;SDS011;27790;50.840;4.386;2023-04-25T13:49:25;8.30;;;1.70;;
39674;SDS011;27790;50.840;4.386;2023-04-25T13:51:51;4.32;;;1.58;;
39674;SDS011;27790;50.840;4.386;2023-04-25T13:54:17;4.03;;;1.40;;
39674;SDS011;27790;50.840;4.386;2023-04-25T13:56:44;2.80;;;1.10;;
39674;SDS011;27790;50.840;4.386;2023-04-25T13:59:10;4.72;;;1.20;;
39674;SDS011;27790;50.840;4.386;2023-04-25T14:01:36;6.05;;;1.60;;
39674;SDS011;27790;50.840;4.386;2023-04-25T14:04:02;3.72;;;1.50;;
39674;SDS011;27790;50.840;4.386;2023-04-25T14:06:31;5.68;;;1.98;;
39674;SDS011;27790;50.840;4.386;2023-04-25T14:08:57;6.10;;;1.23;;
39674;SDS011;27790;50.840;4.386;2023-04-25T14:11:25;7.88;;;1.27;;
39674;SDS011;27790;50.840;4.386;2023-04-25T14:13:51;4.43;;;1.20;;
39674;SDS011;27790;50.840;4.386;2023-04-25T14:16:16;3.10;;;1.20;;
39674;SDS011;27790;50.840;4.386;2023-04-25T14:18:42;6.60;;;1.73;;
39674;SDS011;27790;50.840;4.386;2023-04-25T14:21:08;7.25;;;2.08;;
39674;SDS011;27790;50.840;4.386;2023-04-25T14:23:34;5.47;;;1.08;;
39674;SDS011;27790;50.840;4.386;2023-04-25T14:26:00;8.13;;;1.98;;
39674;SDS011;27790;50.840;4.386;2023-04-25T14:28:26;3.97;;;1.85;;
39674;SDS011;27790;50.840;4.386;2023-04-25T14:30:52;5.30;;;1.50;;
39674;SDS011;27790;50.840;4.386;2023-04-25T14:33:17;4.93;;;1.38;;
39674;SDS011;27790;50.840;4.386;2023-04-25T14:35:43;8.52;;;1.90;;
39674;SDS011;27790;50.840;4.386;2023-04-25T14:38:09;5.63;;;1.50;;
39674;SDS011;27790;50.840;4.386;2023-04-25T14:40:34;4.60;;;1.30;;
39674;SDS011;27790;50.840;4.386;2023-04-25T14:43:00;7.20;;;1.30;;
39674;SDS011;27790;50.840;4.386;2023-04-25T14:45:25;3.00;;;1.48;;
39674;SDS011;27790;50.840;4.386;2023-04-25T14:47:51;5.97;;;1.45;;
39674;SDS011;27790;50.840;4.386;2023-04-25T14:50:17;5.63;;;1.10;;
39674;SDS011;27790;50.840;4.386;2023-04-25T14:52:43;2.97;;;1.40;;
39674;SDS011;27790;50.840;4.386;2023-04-25T14:55:10;5.25;;;1.35;;
39674;SDS011;27790;50.840;4.386;2023-04-25T14:57:36;5.10;;;1.80;;
39674;SDS011;27790;50.840;4.386;2023-04-25T15:00:02;3.03;;;1.52;;